Data for 12/02/2014

Time Sea-Level Adjusted Pressure Absolute Pressure Temperature Relative Humidity Dew Point   
(mb) (inHg) (mb) (inHg) (C) (F) (%) (C) (F)
00:05 1014 29.94 843 24.89 -1.6 29.2 69 -6.6 20.1
00:10 1014 29.94 843 24.89 -1.5 29.3 67 -6.7 19.9
00:15 1014 29.94 843 24.89 -1.4 29.5 67 -6.7 19.9
00:20 1014 29.94 843 24.89 -1.3 29.6 65 -7 19.3
00:25 1014 29.94 843 24.89 -1.2 29.9 64 -7.1 19.3
00:30 1014 29.94 843 24.89 -1.3 29.7 63 -7.4 18.6
00:35 1014 29.94 843 24.89 -1.3 29.6 64 -7.4 18.7
00:40 1014 29.94 843 24.89 -1.6 29.1 64 -7.6 18.3
00:45 1014 29.94 843 24.89 -1.6 29 63 -7.8 18
00:50 1014 29.94 843 24.89 -1.7 29 64 -7.6 18.4
00:55 1014 29.94 843 24.89 -1.9 28.5 66 -7.4 18.7
01:00 1014 29.94 843 24.89 -2.3 28 67 -7.6 18.3
01:05 1014 29.94 844 24.92 -2.4 27.6 69 -7.5 18.6
01:10 1014 29.94 844 24.92 -2.4 27.6 68 -7.6 18.4
01:15 1014 29.94 844 24.92 -2.7 27.2 70 -7.4 18.6
01:20 1014 29.94 844 24.92 -2.6 27.3 70 -7.4 18.8
01:25 1014 29.94 844 24.92 -2.6 27.2 71 -7.3 18.9
01:30 1014 29.94 844 24.92 -2.6 27.3 70 -7.3 18.9
01:35 1014 29.94 844 24.92 -2.5 27.4 71 -7.2 19.1
01:40 1014 29.94 844 24.92 -2.6 27.3 71 -7.2 19
01:45 1014 29.94 844 24.92 -2.8 26.9 72 -7.3 18.9
01:50 1015 29.97 844 24.92 -3 26.6 74 -7 19.4
01:55 1015 29.97 844 24.92 -3.1 26.4 75 -6.9 19.6
02:00 1015 29.97 844 24.92 -3.2 26.2 77 -6.7 19.9
02:05 1015 29.97 844 24.92 -3.1 26.4 77 -6.7 20
02:10 1015 29.97 844 24.92 -3.1 26.4 77 -6.7 20
02:15 1015 29.97 844 24.92 -3.1 26.4 77 -6.6 20.1
02:20 1015 29.97 844 24.92 -3.1 26.4 77 -6.6 20.1
02:25 1015 29.97 844 24.92 -3.1 26.4 76 -6.7 19.9
02:30 1015 29.97 844 24.92 -3 26.6 76 -6.7 20
02:35 1015 29.97 844 24.92 -2.9 26.8 75 -6.8 19.8
02:40 1015 29.97 844 24.92 -2.8 27 73 -7 19.5
02:45 1015 29.97 844 24.92 -2.7 27.1 73 -6.9 19.6
02:50 1015 29.97 844 24.92 -2.7 27.2 72 -7.1 19.3
02:55 1015 29.97 844 24.92 -2.6 27.4 71 -7.1 19.3
03:00 1015 29.97 844 24.92 -2.5 27.5 71 -7.1 19.2
03:05 1015 29.97 844 24.92 -2.5 27.4 71 -7.1 19.2
03:10 1015 29.97 844 24.92 -2.6 27.4 71 -7.1 19.2
03:15 1015 29.97 844 24.92 -2.6 27.4 70 -7.4 18.7
03:20 1015 29.97 845 24.95 -2.6 27.4 71 -7.2 19
03:25 1015 29.97 845 24.95 -2.7 27.2 71 -7.3 18.8
03:30 1016 30 845 24.95 -2.7 27.1 70 -7.5 18.5
03:35 1016 30 845 24.95 -2.6 27.4 68 -7.6 18.3
03:40 1016 30 845 24.95 -2.5 27.6 69 -7.4 18.6
03:45 1016 30 845 24.95 -2.5 27.6 68 -7.6 18.3
03:50 1016 30 845 24.95 -2.4 27.6 69 -7.4 18.6
03:55 1016 30 845 24.95 -2.6 27.3 69 -7.5 18.6
04:00 1016 30 845 24.95 -2.5 27.5 69 -7.5 18.6
04:05 1016 30 845 24.95 -2.5 27.5 68 -7.7 18.2
04:10 1016 30 845 24.95 -2.4 27.7 67 -7.7 18.1
04:15 1016 30 845 24.95 -2.3 27.8 66 -7.8 18
04:20 1016 30 845 24.95 -2.2 28 65 -7.9 17.7
04:25 1016 30 845 24.95 -2.2 28 65 -7.9 17.8
04:30 1016 30 845 24.95 -2.3 27.9 63 -8.4 16.9
04:35 1016 30 845 24.95 -2.1 28.2 62 -8.4 16.9
04:40 1016 30 845 24.95 -1.9 28.6 60 -8.7 16.4
04:45 1016 30 845 24.95 -1.8 28.8 60 -8.5 16.7
04:50 1016 30 845 24.95 -1.8 28.7 64 -7.8 17.9
04:55 1016 30 845 24.95 -2.2 28 64 -8.1 17.4
05:00 1016 30 845 24.95 -2.3 27.9 64 -8.2 17.3
05:05 1016 30 845 24.95 -2.3 27.9 65 -8.1 17.4
05:10 1016 30 845 24.95 -2.4 27.6 66 -8 17.6
05:15 1016 30 845 24.95 -2.6 27.3 68 -7.8 18
05:20 1016 30 845 24.95 -2.9 26.7 67 -8.1 17.4
05:25 1016 30 845 24.95 -2.8 27 68 -7.9 17.7
05:30 1016 30 845 24.95 -2.8 26.9 69 -7.9 17.9
05:35 1016 30 845 24.95 -3 26.5 69 -7.9 17.8
05:40 1016 30 845 24.95 -3.2 26.3 70 -7.9 17.8
05:45 1016 30 845 24.95 -3.2 26.2 70 -8 17.7
05:50 1016 30 845 24.95 -3 26.7 69 -7.8 17.9
05:55 1016 30 845 24.95 -2.7 27.1 68 -7.8 17.9
06:00 1016 30 845 24.95 -2.6 27.2 68 -7.7 18.1
06:05 1016 30 845 24.95 -2.7 27.1 69 -7.7 18.2
06:10 1016 30 845 24.95 -2.8 27 70 -7.6 18.3
06:15 1016 30 845 24.95 -2.8 26.9 69 -7.7 18.2
06:20 1016 30 845 24.95 -2.8 27 69 -7.7 18.1
06:25 1016 30 845 24.95 -2.9 26.8 68 -8 17.6
06:30 1016 30 845 24.95 -2.9 26.7 68 -8 17.5
06:35 1016 30 845 24.95 -3 26.6 68 -8.2 17.3
06:40 1016 30 845 24.95 -3.1 26.5 69 -8 17.7
06:45 1016 30 845 24.95 -3.2 26.3 70 -7.9 17.9
06:50 1016 30 845 24.95 -3.3 26.1 69 -8.1 17.4
06:55 1016 30 845 24.95 -3.4 26 68 -8.5 16.7
07:00 1016 30 845 24.95 -3.3 26.1 68 -8.4 16.8
07:05 1016 30 845 24.95 -3.4 26 68 -8.4 16.9
07:10 1016 30 845 24.95 -3.4 25.9 68 -8.5 16.7
07:15 1016 30 845 24.95 -3.7 25.4 71 -8.1 17.4
07:20 1016 30 845 24.95 -4.4 24 74 -8.3 17
07:25 1016 30 846 24.98 -4.7 23.5 75 -8.5 16.6
07:30 1016 30 846 24.98 -4.7 23.5 74 -8.8 16.2
07:35 1016 30 846 24.98 -4.7 23.6 77 -8.1 17.4
07:40 1016 30 846 24.98 -5.3 22.4 80 -8.2 17.3
07:45 1016 30 846 24.98 -5.2 22.6 78 -8.5 16.6
07:50 1017 30.03 846 24.98 -4.9 23.1 77 -8.3 17
07:55 1017 30.03 846 24.98 -5.3 22.5 81 -8 17.7
08:00 1017 30.03 846 24.98 -5.3 22.4 80 -8.2 17.2
08:05 1017 30.03 846 24.98 -4.5 23.9 76 -8.1 17.4
08:10 1017 30.03 846 24.98 -5 23 77 -8.4 16.9
08:15 1017 30.03 846 24.98 -5.3 22.6 78 -8.5 16.7
08:20 1017 30.03 846 24.98 -5.9 21.4 79 -8.9 16
08:25 1017 30.03 846 24.98 -5.9 21.3 79 -9.1 15.6
08:30 1017 30.03 846 24.98 -5.9 21.3 76 -9.4 15
08:35 1017 30.03 846 24.98 -5.6 21.9 75 -9.4 15.1
08:40 1017 30.03 846 24.98 -5.3 22.4 73 -9.4 15.2
08:45 1017 30.03 846 24.98 -5.2 22.7 73 -9.2 15.4
08:50 1017 30.03 846 24.98 -5.1 22.9 73 -9.2 15.5
08:55 1017 30.03 846 24.98 -5 23 73 -9 15.8
09:00 1017 30.03 846 24.98 -5 22.9 73 -9.2 15.4
09:05 1017 30.03 847 25.01 -4.9 23.1 72 -9.3 15.2
09:10 1017 30.03 847 25.01 -5 23.1 72 -9.3 15.2
09:15 1017 30.03 847 25.01 -4.9 23.2 70 -9.6 14.7
09:20 1017 30.03 847 25.01 -4.6 23.8 68 -9.7 14.6
09:25 1018 30.06 847 25.01 -5.1 22.7 69 -10.1 13.9
09:30 1018 30.06 847 25.01 -5.2 22.6 69 -10.1 13.8
09:35 1018 30.06 847 25.01 -4.9 23.2 68 -10 14
09:40 1018 30.06 847 25.01 -5.3 22.4 69 -10.2 13.6
09:45 1018 30.06 847 25.01 -5.1 22.8 67 -10.3 13.5
09:50 1018 30.06 847 25.01 -4.3 24.2 65 -10 14.1
09:55 1018 30.06 847 25.01 -4.2 24.4 65 -9.8 14.3
10:00 1018 30.06 847 25.01 -3.9 24.9 61 -10.4 13.4
10:05 1018 30.06 847 25.01 -3.6 25.5 62 -9.9 14.1
10:10 1018 30.06 847 25.01 -4.1 24.5 63 -10.3 13.5
10:15 1018 30.06 847 25.01 -3.9 24.9 62 -10.2 13.6
10:20 1018 30.06 847 25.01 -4 24.8 63 -10.1 13.8
10:25 1018 30.06 847 25.01 -3.9 24.9 62 -10.2 13.6
10:30 1018 30.06 847 25.01 -3.9 25.1 62 -10.1 13.8
10:35 1018 30.06 847 25.01 -4 24.7 63 -10 13.9
10:40 1018 30.06 847 25.01 -4.2 24.5 64 -10 13.9
10:45 1018 30.06 847 25.01 -3.9 25 64 -9.7 14.5
10:50 1018 30.06 847 25.01 -3.7 25.3 62 -10 14.1
10:55 1018 30.06 848 25.04 -3.4 25.9 60 -10.1 13.9
11:00 1018 30.06 848 25.04 -2.6 27.2 57 -10.1 13.8
11:05 1018 30.06 848 25.04 -2 28.3 56 -9.6 14.8
11:10 1018 30.06 848 25.04 -2.2 28 57 -9.7 14.5
11:15 1018 30.06 848 25.04 -2.1 28.2 57 -9.5 14.8
11:20 1018 30.06 848 25.04 -1.9 28.5 56 -9.5 14.8
11:25 1018 30.06 848 25.04 -1.6 29.1 56 -9.4 15.1
11:30 1018 30.06 848 25.04 -1.4 29.5 54 -9.5 15
11:35 1018 30.06 848 25.04 -0.9 30.4 52 -9.7 14.6
11:40 1019 30.09 848 25.04 -0.2 31.6 49 -9.6 14.7
11:45 1019 30.09 848 25.04 0.6 33.1 46 -9.8 14.3
11:50 1019 30.09 848 25.04 1 33.8 45 -9.8 14.4
11:55 1019 30.09 848 25.04 0.9 33.5 46 -9.6 14.7
12:00 1019 30.09 848 25.04 0.7 33.3 46 -9.8 14.4
12:05 1019 30.09 848 25.04 0.6 33.1 43 -10.5 13.2
12:10 1019 30.09 848 25.04 0.9 33.5 43 -10.4 13.3
12:15 1019 30.09 848 25.04 1.2 34.2 42 -10.4 13.3
12:20 1019 30.09 848 25.04 1.3 34.3 42 -10.3 13.4
12:25 1019 30.09 848 25.04 1.3 34.3 42 -10.4 13.3
12:30 1019 30.09 848 25.04 1.4 34.5 40 -10.9 12.3
12:35 1019 30.09 848 25.04 1.5 34.7 41 -10.5 13.1
12:40 1019 30.09 848 25.04 1.5 34.8 41 -10.4 13.4
12:45 1019 30.09 848 25.04 1.9 35.4 40 -10.3 13.4
12:50 1019 30.09 848 25.04 2.2 35.9 38 -10.7 12.8
12:55 1019 30.09 848 25.04 1.7 35.1 38 -11.1 12.1
13:00 1019 30.09 848 25.04 1.8 35.2 37 -11.3 11.6
13:05 1018 30.06 848 25.04 1.9 35.3 38 -11 12.1
13:10 1018 30.06 848 25.04 1.9 35.4 37 -11.2 11.9
13:15 1018 30.06 848 25.04 2.2 36 37 -10.9 12.4
13:20 1018 30.06 848 25.04 2.4 36.3 36 -11.3 11.6
13:25 1018 30.06 848 25.04 2.3 36.2 34 -12 10.5
13:30 1018 30.06 847 25.01 2.4 36.3 35 -11.5 11.4
13:35 1018 30.06 847 25.01 2.6 36.7 33 -12 10.3
13:40 1018 30.06 847 25.01 2.9 37.3 34 -11.6 11
13:45 1018 30.06 848 25.04 2.9 37.3 33 -12 10.4
13:50 1018 30.06 848 25.04 3 37.4 32 -12 10.3
13:55 1018 30.06 848 25.04 2.8 37 35 -11.3 11.7
14:00 1018 30.06 848 25.04 2.6 36.6 34 -11.9 10.6
14:05 1018 30.06 848 25.04 2.1 35.8 33 -12.4 9.6
14:10 1018 30.06 848 25.04 1.8 35.2 36 -11.7 10.9
14:15 1019 30.09 848 25.04 1.7 35.1 36 -11.8 10.7
14:20 1019 30.09 848 25.04 2 35.6 36 -11.7 11
14:25 1019 30.09 848 25.04 2.1 35.7 36 -11.4 11.5
14:30 1019 30.09 848 25.04 2.1 35.7 35 -11.7 10.9
14:35 1019 30.09 848 25.04 2.1 35.9 36 -11.4 11.4
14:40 1018 30.06 848 25.04 2 35.7 35 -12 10.4
14:45 1018 30.06 848 25.04 2.2 36 35 -11.7 10.9
14:50 1018 30.06 848 25.04 2.2 35.9 34 -12.2 10
14:55 1018 30.06 848 25.04 1.9 35.5 36 -11.8 10.8
15:00 1019 30.09 848 25.04 1.9 35.5 34 -12.4 9.6
15:05 1018 30.06 848 25.04 2.1 35.9 35 -11.8 10.8
15:10 1018 30.06 847 25.01 2.4 36.3 34 -12 10.4
15:15 1018 30.06 847 25.01 2.5 36.5 34 -11.8 10.8
15:20 1018 30.06 847 25.01 2.5 36.5 33 -12.1 10.2
15:25 1018 30.06 847 25.01 2.5 36.6 32 -12.5 9.4
15:30 1018 30.06 847 25.01 2.6 36.7 32 -12.5 9.5
15:35 1018 30.06 847 25.01 2.6 36.6 33 -12.2 10
15:40 1018 30.06 847 25.01 2.8 37 32 -12.5 9.6
15:45 1018 30.06 847 25.01 2.6 36.7 32 -12.5 9.5
15:50 1018 30.06 847 25.01 2.4 36.3 33 -12.5 9.6
15:55 1018 30.06 847 25.01 2.4 36.3 33 -12.2 10
16:00 1018 30.06 847 25.01 2.5 36.5 32 -12.4 9.6
16:05 1018 30.06 847 25.01 2.4 36.3 33 -12.2 10.1
16:10 1018 30.06 847 25.01 2 35.6 36 -11.5 11.3
16:15 1018 30.06 847 25.01 0.7 33.2 41 -11.2 11.8
16:20 1018 30.06 848 25.04 0.4 32.6 40 -11.9 10.6
16:25 1018 30.06 848 25.04 -0.2 31.6 40 -12.3 9.8
16:30 1018 30.06 848 25.04 -0.3 31.4 39 -12.6 9.4
16:35 1018 30.06 848 25.04 0.3 32.6 37 -12.8 9
16:40 1018 30.06 848 25.04 0.3 32.5 36 -13.1 8.5
16:45 1018 30.06 848 25.04 -0 31.9 36 -13.3 8.1
16:50 1018 30.06 848 25.04 0 32.1 37 -13.1 8.3
16:55 1018 30.06 848 25.04 -0.6 30.9 39 -13 8.7
17:00 1018 30.06 848 25.04 -1 30.2 42 -12.4 9.6
17:05 1018 30.06 848 25.04 -1.4 29.5 43 -12.3 9.8
17:10 1019 30.09 848 25.04 -1.9 28.6 46 -12.1 10.2
17:15 1019 30.09 848 25.04 -2.1 28.2 46 -12.2 10
17:20 1019 30.09 848 25.04 -2 28.5 47 -12 10.5
17:25 1019 30.09 848 25.04 -2 28.4 45 -12.5 9.4
17:30 1019 30.09 848 25.04 -1.6 29.1 47 -11.6 11.1
17:35 1019 30.09 848 25.04 -2 28.4 47 -11.8 10.8
17:40 1019 30.09 848 25.04 -2.6 27.3 49 -11.9 10.7
17:45 1019 30.09 848 25.04 -2.8 26.9 51 -11.7 11
17:50 1019 30.09 848 25.04 -3.1 26.4 52 -11.5 11.2
17:55 1018 30.06 848 25.04 -3.2 26.3 52 -11.7 10.9
18:00 1018 30.06 848 25.04 -3.4 26 53 -11.6 11.1
18:05 1018 30.06 848 25.04 -3.4 26 54 -11.4 11.5
18:10 1018 30.06 848 25.04 -3.6 25.6 57 -10.9 12.3
18:15 1018 30.06 847 25.01 -3.6 25.6 57 -11 12.2
18:20 1018 30.06 848 25.04 -3.6 25.5 57 -10.9 12.5
18:25 1018 30.06 848 25.04 -3.7 25.3 56 -11.3 11.7
18:30 1018 30.06 847 25.01 -3.9 25.1 56 -11.4 11.6
18:35 1018 30.06 847 25.01 -3.8 25.1 56 -11.4 11.5
18:40 1018 30.06 847 25.01 -3.9 25 55 -11.6 11.2
18:45 1018 30.06 847 25.01 -3.8 25.2 55 -11.5 11.4
18:50 1018 30.06 847 25.01 -3.9 25 57 -11.1 12
18:55 1018 30.06 847 25.01 -4.4 24.2 59 -11.1 11.9
19:00 1018 30.06 847 25.01 -4.6 23.7 58 -11.6 11
19:05 1018 30.06 847 25.01 -4.3 24.3 57 -11.7 11
19:10 1018 30.06 847 25.01 -4.1 24.6 54 -12.1 10.3
19:15 1018 30.06 847 25.01 -4 24.8 50 -13 8.6
19:20 1018 30.06 847 25.01 -3.7 25.3 52 -12.1 10.1
19:25 1018 30.06 847 25.01 -3.7 25.3 52 -12.1 10.2
19:30 1018 30.06 847 25.01 -4 24.9 54 -12.1 10.3
19:35 1018 30.06 847 25.01 -4.1 24.6 54 -12 10.4
19:40 1018 30.06 847 25.01 -4.4 24.1 55 -12.2 10
19:45 1018 30.06 847 25.01 -4.4 24 56 -12 10.5
19:50 1018 30.06 847 25.01 -4.5 24 56 -11.9 10.6
19:55 1018 30.06 848 25.04 -4.6 23.7 57 -11.8 10.7
20:00 1018 30.06 848 25.04 -4.8 23.3 59 -11.8 10.8
20:05 1018 30.06 848 25.04 -4.8 23.3 58 -11.8 10.7
20:10 1018 30.06 847 25.01 -4.7 23.5 59 -11.5 11.3
20:15 1018 30.06 848 25.04 -5.1 22.9 61 -11.5 11.2
20:20 1019 30.09 848 25.04 -5.3 22.4 61 -11.6 11
20:25 1018 30.06 848 25.04 -5.2 22.7 59 -11.9 10.6
20:30 1019 30.09 848 25.04 -5 22.9 59 -11.8 10.7
20:35 1019 30.09 848 25.04 -5.5 22.2 62 -11.7 10.9
20:40 1019 30.09 848 25.04 -5.8 21.6 61 -12.1 10.2
20:45 1019 30.09 848 25.04 -5.8 21.5 63 -11.9 10.6
20:50 1019 30.09 848 25.04 -5.9 21.3 63 -11.9 10.5
20:55 1019 30.09 848 25.04 -6 21.1 63 -11.9 10.6
21:00 1019 30.09 848 25.04 -6 21.3 63 -11.9 10.6
21:05 1019 30.09 848 25.04 -6 21.2 63 -12.1 10.3
21:10 1019 30.09 848 25.04 -5.6 21.9 60 -12.1 10.2
21:15 1019 30.09 848 25.04 -5.5 22.2 60 -12.1 10.1
21:20 1019 30.09 848 25.04 -5.5 22.1 61 -11.8 10.8
21:25 1019 30.09 848 25.04 -6 21.1 63 -11.9 10.6
21:30 1018 30.06 848 25.04 -6.5 20.4 65 -12 10.3
21:35 1018 30.06 848 25.04 -6.8 19.7 66 -12.1 10.1
21:40 1018 30.06 848 25.04 -6.2 20.8 61 -12.6 9.4
21:45 1018 30.06 847 25.01 -5.9 21.4 61 -12.2 10
21:50 1018 30.06 848 25.04 -5.8 21.6 58 -12.8 9
21:55 1018 30.06 847 25.01 -5.6 22 58 -12.5 9.5
22:00 1018 30.06 847 25.01 -5.4 22.3 58 -12.4 9.7
22:05 1018 30.06 847 25.01 -5.4 22.2 58 -12.5 9.6
22:10 1018 30.06 847 25.01 -5.7 21.7 60 -12.3 9.8
22:15 1018 30.06 847 25.01 -6 21.1 59 -12.8 9
22:20 1018 30.06 847 25.01 -5.7 21.7 59 -12.5 9.4
22:25 1018 30.06 847 25.01 -5.7 21.7 59 -12.6 9.4
22:30 1018 30.06 847 25.01 -6 21.2 58 -12.9 8.8
22:35 1018 30.06 848 25.04 -6.1 21 59 -12.9 8.8
22:40 1018 30.06 848 25.04 -6.3 20.6 60 -12.9 8.8
22:45 1018 30.06 848 25.04 -6.3 20.7 60 -12.8 8.9
22:50 1019 30.09 848 25.04 -6.3 20.7 62 -12.3 9.8
22:55 1019 30.09 848 25.04 -6.4 20.4 61 -12.9 8.9
23:00 1019 30.09 848 25.04 -6.6 20.1 61 -12.9 8.8
23:05 1019 30.09 848 25.04 -6.8 19.8 60 -13.3 8.1
23:10 1019 30.09 848 25.04 -6.7 19.9 60 -13.3 8
23:15 1019 30.09 848 25.04 -6.5 20.3 60 -13 8.5
23:20 1019 30.09 848 25.04 -6.6 20.1 60 -13.1 8.4
23:25 1019 30.09 848 25.04 -6.7 19.9 62 -12.8 8.9
23:30 1019 30.09 848 25.04 -7.3 18.9 63 -13.2 8.3
23:35 1019 30.09 848 25.04 -6.8 19.8 62 -13 8.6
23:40 1019 30.09 848 25.04 -6.3 20.7 59 -13.1 8.4
23:45 1019 30.09 848 25.04 -5.8 21.6 58 -12.7 9.1
23:50 1019 30.09 848 25.04 -6.1 21 61 -12.5 9.5
23:55 1019 30.09 848 25.04 -6.5 20.3 62 -12.7 9.1
24:00 1019 30.09 848 25.04 -6.6 20.2 63 -12.6 9.4